sensor_id;sensor_type;location;lat;lon;timestamp;P1;durP1;ratioP1;P2;durP2;ratioP2
13240;SDS011;6687;47.790;7.322;2024-01-30T06:19:43;2.85;;;1.58;;
13240;SDS011;6687;47.790;7.322;2024-01-30T06:22:10;1.10;;;1.05;;
13240;SDS011;6687;47.790;7.322;2024-01-30T06:24:37;1.65;;;0.85;;
13240;SDS011;6687;47.790;7.322;2024-01-30T06:27:04;2.15;;;1.17;;
13240;SDS011;6687;47.790;7.322;2024-01-30T06:29:30;1.30;;;1.20;;
13240;SDS011;6687;47.790;7.322;2024-01-30T06:31:57;1.00;;;1.00;;
13240;SDS011;6687;47.790;7.322;2024-01-30T06:34:24;1.25;;;1.15;;
13240;SDS011;6687;47.790;7.322;2024-01-30T06:36:53;1.88;;;1.27;;
13240;SDS011;6687;47.790;7.322;2024-01-30T06:39:19;0.77;;;0.77;;
13240;SDS011;6687;47.790;7.322;2024-01-30T06:41:46;2.10;;;1.65;;
13240;SDS011;6687;47.790;7.322;2024-01-30T06:44:13;1.20;;;1.10;;
13240;SDS011;6687;47.790;7.322;2024-01-30T06:46:39;2.10;;;1.15;;
13240;SDS011;6687;47.790;7.322;2024-01-30T06:49:06;1.95;;;1.42;;
13240;SDS011;6687;47.790;7.322;2024-01-30T06:51:33;1.85;;;1.45;;
13240;SDS011;6687;47.790;7.322;2024-01-30T06:54:01;2.60;;;1.60;;
13240;SDS011;6687;47.790;7.322;2024-01-30T06:56:28;1.50;;;1.40;;
13240;SDS011;6687;47.790;7.322;2024-01-30T06:58:55;1.48;;;1.38;;
13240;SDS011;6687;47.790;7.322;2024-01-30T07:01:27;1.13;;;1.02;;
13240;SDS011;6687;47.790;7.322;2024-01-30T07:03:54;1.83;;;1.00;;
13240;SDS011;6687;47.790;7.322;2024-01-30T07:06:20;1.77;;;1.20;;
13240;SDS011;6687;47.790;7.322;2024-01-30T07:08:49;0.68;;;0.68;;
13240;SDS011;6687;47.790;7.322;2024-01-30T07:11:19;0.95;;;0.90;;
13240;SDS011;6687;47.790;7.322;2024-01-30T07:13:47;0.85;;;0.85;;
13240;SDS011;6687;47.790;7.322;2024-01-30T07:16:14;1.67;;;0.98;;
13240;SDS011;6687;47.790;7.322;2024-01-30T07:18:40;1.17;;;0.80;;
13240;SDS011;6687;47.790;7.322;2024-01-30T07:21:07;1.30;;;0.90;;
13240;SDS011;6687;47.790;7.322;2024-01-30T07:23:34;0.90;;;0.90;;
13240;SDS011;6687;47.790;7.322;2024-01-30T07:26:03;1.17;;;1.08;;
13240;SDS011;6687;47.790;7.322;2024-01-30T07:28:32;1.77;;;1.67;;
13240;SDS011;6687;47.790;7.322;2024-01-30T07:30:59;1.98;;;1.15;;
13240;SDS011;6687;47.790;7.322;2024-01-30T07:33:26;3.13;;;1.67;;
13240;SDS011;6687;47.790;7.322;2024-01-30T07:35:53;1.27;;;1.13;;
13240;SDS011;6687;47.790;7.322;2024-01-30T07:38:20;2.05;;;1.40;;
13240;SDS011;6687;47.790;7.322;2024-01-30T07:40:47;2.60;;;1.48;;
13240;SDS011;6687;47.790;7.322;2024-01-30T07:43:13;1.10;;;0.95;;
13240;SDS011;6687;47.790;7.322;2024-01-30T07:45:41;1.20;;;1.10;;
13240;SDS011;6687;47.790;7.322;2024-01-30T07:48:08;1.73;;;1.63;;
13240;SDS011;6687;47.790;7.322;2024-01-30T07:50:35;1.05;;;0.98;;
13240;SDS011;6687;47.790;7.322;2024-01-30T07:53:01;1.20;;;1.17;;
13240;SDS011;6687;47.790;7.322;2024-01-30T07:55:28;2.00;;;1.90;;
13240;SDS011;6687;47.790;7.322;2024-01-30T07:57:56;1.95;;;1.48;;
13240;SDS011;6687;47.790;7.322;2024-01-30T08:00:23;2.63;;;1.67;;
13240;SDS011;6687;47.790;7.322;2024-01-30T08:02:52;3.92;;;1.38;;
13240;SDS011;6687;47.790;7.322;2024-01-30T08:05:19;2.78;;;2.00;;
13240;SDS011;6687;47.790;7.322;2024-01-30T08:07:47;2.30;;;1.75;;
13240;SDS011;6687;47.790;7.322;2024-01-30T08:10:14;3.22;;;1.80;;
13240;SDS011;6687;47.790;7.322;2024-01-30T08:12:43;4.25;;;1.92;;
13240;SDS011;6687;47.790;7.322;2024-01-30T08:15:10;1.45;;;1.35;;
13240;SDS011;6687;47.790;7.322;2024-01-30T08:17:38;2.00;;;1.65;;
13240;SDS011;6687;47.790;7.322;2024-01-30T08:20:07;1.67;;;1.38;;
13240;SDS011;6687;47.790;7.322;2024-01-30T08:22:37;4.00;;;1.98;;
13240;SDS011;6687;47.790;7.322;2024-01-30T08:25:05;2.58;;;2.38;;
13240;SDS011;6687;47.790;7.322;2024-01-30T08:27:32;2.60;;;1.63;;
13240;SDS011;6687;47.790;7.322;2024-01-30T08:30:00;2.22;;;2.03;;
13240;SDS011;6687;47.790;7.322;2024-01-30T08:32:27;3.05;;;1.85;;
13240;SDS011;6687;47.790;7.322;2024-01-30T08:34:54;1.80;;;1.65;;
13240;SDS011;6687;47.790;7.322;2024-01-30T08:37:22;1.90;;;1.80;;
13240;SDS011;6687;47.790;7.322;2024-01-30T08:39:48;2.13;;;1.83;;
13240;SDS011;6687;47.790;7.322;2024-01-30T08:42:15;1.83;;;1.73;;
13240;SDS011;6687;47.790;7.322;2024-01-30T08:44:43;2.15;;;1.80;;
13240;SDS011;6687;47.790;7.322;2024-01-30T08:47:10;1.75;;;1.65;;
13240;SDS011;6687;47.790;7.322;2024-01-30T08:49:37;2.30;;;1.65;;
13240;SDS011;6687;47.790;7.322;2024-01-30T08:52:03;2.28;;;1.50;;
13240;SDS011;6687;47.790;7.322;2024-01-30T08:54:32;1.35;;;1.30;;
13240;SDS011;6687;47.790;7.322;2024-01-30T08:57:00;1.33;;;1.23;;
13240;SDS011;6687;47.790;7.322;2024-01-30T08:59:27;1.45;;;1.33;;
13240;SDS011;6687;47.790;7.322;2024-01-30T09:01:54;2.08;;;1.55;;
13240;SDS011;6687;47.790;7.322;2024-01-30T09:04:23;1.58;;;1.38;;
13240;SDS011;6687;47.790;7.322;2024-01-30T09:06:49;1.52;;;1.15;;
13240;SDS011;6687;47.790;7.322;2024-01-30T09:09:16;1.38;;;1.30;;
13240;SDS011;6687;47.790;7.322;2024-01-30T09:11:45;3.10;;;1.95;;
13240;SDS011;6687;47.790;7.322;2024-01-30T09:14:12;1.45;;;1.27;;
13240;SDS011;6687;47.790;7.322;2024-01-30T09:16:39;1.35;;;1.33;;
13240;SDS011;6687;47.790;7.322;2024-01-30T09:19:05;1.90;;;1.58;;
13240;SDS011;6687;47.790;7.322;2024-01-30T09:21:32;1.98;;;1.48;;
13240;SDS011;6687;47.790;7.322;2024-01-30T09:24:01;2.83;;;2.13;;
13240;SDS011;6687;47.790;7.322;2024-01-30T09:26:28;1.98;;;1.88;;
13240;SDS011;6687;47.790;7.322;2024-01-30T09:28:57;2.10;;;1.95;;
13240;SDS011;6687;47.790;7.322;2024-01-30T09:31:23;1.67;;;1.58;;
13240;SDS011;6687;47.790;7.322;2024-01-30T09:33:50;1.80;;;1.58;;
13240;SDS011;6687;47.790;7.322;2024-01-30T09:36:19;3.75;;;1.92;;
13240;SDS011;6687;47.790;7.322;2024-01-30T09:38:46;1.52;;;1.42;;
13240;SDS011;6687;47.790;7.322;2024-01-30T09:41:12;2.05;;;1.58;;
13240;SDS011;6687;47.790;7.322;2024-01-30T09:43:40;2.67;;;1.80;;
13240;SDS011;6687;47.790;7.322;2024-01-30T09:46:11;1.75;;;1.65;;
13240;SDS011;6687;47.790;7.322;2024-01-30T09:48:39;1.85;;;1.67;;
13240;SDS011;6687;47.790;7.322;2024-01-30T09:51:07;1.65;;;1.55;;
13240;SDS011;6687;47.790;7.322;2024-01-30T09:53:35;1.00;;;0.85;;
13240;SDS011;6687;47.790;7.322;2024-01-30T09:56:03;1.48;;;1.38;;
13240;SDS011;6687;47.790;7.322;2024-01-30T09:58:31;0.93;;;0.93;;
13240;SDS011;6687;47.790;7.322;2024-01-30T10:00:58;1.65;;;1.55;;
13240;SDS011;6687;47.790;7.322;2024-01-30T10:03:26;2.00;;;1.40;;
13240;SDS011;6687;47.790;7.322;2024-01-30T10:05:53;2.85;;;2.10;;
13240;SDS011;6687;47.790;7.322;2024-01-30T10:08:22;1.33;;;1.23;;
13240;SDS011;6687;47.790;7.322;2024-01-30T10:10:49;1.77;;;1.10;;
13240;SDS011;6687;47.790;7.322;2024-01-30T10:13:16;1.35;;;1.27;;
13240;SDS011;6687;47.790;7.322;2024-01-30T10:15:43;0.93;;;0.93;;
13240;SDS011;6687;47.790;7.322;2024-01-30T10:18:10;1.65;;;1.25;;
13240;SDS011;6687;47.790;7.322;2024-01-30T10:20:38;1.85;;;1.33;;
13240;SDS011;6687;47.790;7.322;2024-01-30T10:23:05;1.58;;;1.45;;
13240;SDS011;6687;47.790;7.322;2024-01-30T10:25:33;0.85;;;0.85;;
13240;SDS011;6687;47.790;7.322;2024-01-30T10:27:59;2.75;;;1.55;;
13240;SDS011;6687;47.790;7.322;2024-01-30T10:30:26;1.50;;;1.40;;
13240;SDS011;6687;47.790;7.322;2024-01-30T10:32:53;1.98;;;1.35;;
13240;SDS011;6687;47.790;7.322;2024-01-30T10:35:20;1.27;;;1.08;;
13240;SDS011;6687;47.790;7.322;2024-01-30T10:37:48;1.08;;;0.98;;
13240;SDS011;6687;47.790;7.322;2024-01-30T10:40:15;2.38;;;1.77;;
13240;SDS011;6687;47.790;7.322;2024-01-30T10:42:43;1.75;;;1.30;;
13240;SDS011;6687;47.790;7.322;2024-01-30T10:45:11;1.60;;;1.48;;
13240;SDS011;6687;47.790;7.322;2024-01-30T10:47:39;1.67;;;1.55;;
13240;SDS011;6687;47.790;7.322;2024-01-30T10:50:07;2.60;;;1.83;;
13240;SDS011;6687;47.790;7.322;2024-01-30T10:52:35;1.17;;;1.08;;
13240;SDS011;6687;47.790;7.322;2024-01-30T10:55:05;1.17;;;1.05;;
13240;SDS011;6687;47.790;7.322;2024-01-30T10:57:33;1.45;;;1.35;;
13240;SDS011;6687;47.790;7.322;2024-01-30T11:00:02;1.48;;;1.38;;
13240;SDS011;6687;47.790;7.322;2024-01-30T11:02:35;3.13;;;1.50;;
13240;SDS011;6687;47.790;7.322;2024-01-30T11:05:04;1.55;;;1.45;;
13240;SDS011;6687;47.790;7.322;2024-01-30T11:07:31;1.52;;;1.27;;
13240;SDS011;6687;47.790;7.322;2024-01-30T11:10:01;1.58;;;1.48;;
13240;SDS011;6687;47.790;7.322;2024-01-30T11:12:31;1.20;;;1.10;;
13240;SDS011;6687;47.790;7.322;2024-01-30T11:15:03;1.55;;;1.13;;
13240;SDS011;6687;47.790;7.322;2024-01-30T11:17:40;4.47;;;1.65;;
13240;SDS011;6687;47.790;7.322;2024-01-30T11:20:09;1.23;;;1.10;;
13240;SDS011;6687;47.790;7.322;2024-01-30T11:22:37;1.95;;;1.35;;
13240;SDS011;6687;47.790;7.322;2024-01-30T11:25:04;0.98;;;0.95;;
13240;SDS011;6687;47.790;7.322;2024-01-30T11:27:32;1.08;;;0.65;;
13240;SDS011;6687;47.790;7.322;2024-01-30T11:30:00;0.82;;;0.82;;
13240;SDS011;6687;47.790;7.322;2024-01-30T11:32:28;0.73;;;0.73;;
13240;SDS011;6687;47.790;7.322;2024-01-30T11:34:54;1.27;;;1.17;;
13240;SDS011;6687;47.790;7.322;2024-01-30T11:37:21;1.73;;;1.60;;
13240;SDS011;6687;47.790;7.322;2024-01-30T11:39:52;1.05;;;0.98;;
13240;SDS011;6687;47.790;7.322;2024-01-30T11:42:20;0.73;;;0.73;;
13240;SDS011;6687;47.790;7.322;2024-01-30T11:44:52;0.88;;;0.88;;
13240;SDS011;6687;47.790;7.322;2024-01-30T11:47:19;1.75;;;1.13;;
13240;SDS011;6687;47.790;7.322;2024-01-30T11:49:45;0.75;;;0.75;;
13240;SDS011;6687;47.790;7.322;2024-01-30T11:52:12;1.20;;;1.10;;
13240;SDS011;6687;47.790;7.322;2024-01-30T11:54:39;1.45;;;1.08;;
13240;SDS011;6687;47.790;7.322;2024-01-30T11:57:06;0.85;;;0.82;;
13240;SDS011;6687;47.790;7.322;2024-01-30T11:59:33;1.50;;;1.33;;
13240;SDS011;6687;47.790;7.322;2024-01-30T12:02:01;3.80;;;1.10;;
13240;SDS011;6687;47.790;7.322;2024-01-30T12:04:28;0.95;;;0.95;;
13240;SDS011;6687;47.790;7.322;2024-01-30T12:06:55;0.47;;;0.47;;
13240;SDS011;6687;47.790;7.322;2024-01-30T12:09:22;1.15;;;1.08;;
13240;SDS011;6687;47.790;7.322;2024-01-30T12:11:49;0.55;;;0.55;;
13240;SDS011;6687;47.790;7.322;2024-01-30T12:14:16;1.05;;;0.88;;
13240;SDS011;6687;47.790;7.322;2024-01-30T12:16:47;1.13;;;1.10;;
13240;SDS011;6687;47.790;7.322;2024-01-30T12:19:22;1.83;;;1.05;;
13240;SDS011;6687;47.790;7.322;2024-01-30T12:21:53;0.88;;;0.80;;
13240;SDS011;6687;47.790;7.322;2024-01-30T12:24:21;1.42;;;1.25;;
13240;SDS011;6687;47.790;7.322;2024-01-30T12:26:48;2.38;;;1.67;;
13240;SDS011;6687;47.790;7.322;2024-01-30T12:29:15;1.60;;;0.82;;
13240;SDS011;6687;47.790;7.322;2024-01-30T12:31:42;0.77;;;0.77;;
13240;SDS011;6687;47.790;7.322;2024-01-30T12:34:09;1.73;;;1.45;;
13240;SDS011;6687;47.790;7.322;2024-01-30T12:36:37;0.73;;;0.73;;
13240;SDS011;6687;47.790;7.322;2024-01-30T12:39:03;1.00;;;1.00;;
13240;SDS011;6687;47.790;7.322;2024-01-30T12:41:30;0.70;;;0.70;;
13240;SDS011;6687;47.790;7.322;2024-01-30T12:43:57;0.90;;;0.85;;
13240;SDS011;6687;47.790;7.322;2024-01-30T12:46:25;0.80;;;0.80;;
13240;SDS011;6687;47.790;7.322;2024-01-30T12:48:53;1.83;;;0.60;;
13240;SDS011;6687;47.790;7.322;2024-01-30T12:51:20;0.95;;;0.80;;
13240;SDS011;6687;47.790;7.322;2024-01-30T12:53:48;0.88;;;0.88;;
13240;SDS011;6687;47.790;7.322;2024-01-30T12:56:15;1.15;;;1.02;;
13240;SDS011;6687;47.790;7.322;2024-01-30T12:58:42;0.90;;;0.60;;
13240;SDS011;6687;47.790;7.322;2024-01-30T13:01:09;1.13;;;1.10;;
13240;SDS011;6687;47.790;7.322;2024-01-30T13:03:36;0.90;;;0.90;;
13240;SDS011;6687;47.790;7.322;2024-01-30T13:06:03;1.35;;;0.80;;
13240;SDS011;6687;47.790;7.322;2024-01-30T13:08:30;0.75;;;0.75;;
13240;SDS011;6687;47.790;7.322;2024-01-30T13:10:58;1.17;;;1.08;;
13240;SDS011;6687;47.790;7.322;2024-01-30T13:13:24;1.40;;;1.23;;
13240;SDS011;6687;47.790;7.322;2024-01-30T13:15:51;0.88;;;0.85;;
13240;SDS011;6687;47.790;7.322;2024-01-30T13:18:18;0.80;;;0.80;;
13240;SDS011;6687;47.790;7.322;2024-01-30T13:20:44;1.35;;;1.10;;
13240;SDS011;6687;47.790;7.322;2024-01-30T13:23:11;1.08;;;1.08;;
13240;SDS011;6687;47.790;7.322;2024-01-30T13:25:38;1.23;;;0.82;;
13240;SDS011;6687;47.790;7.322;2024-01-30T13:28:06;1.58;;;1.20;;
13240;SDS011;6687;47.790;7.322;2024-01-30T13:30:33;1.05;;;1.05;;
13240;SDS011;6687;47.790;7.322;2024-01-30T13:33:00;0.80;;;0.80;;
13240;SDS011;6687;47.790;7.322;2024-01-30T13:35:28;0.80;;;0.80;;
13240;SDS011;6687;47.790;7.322;2024-01-30T13:37:55;1.60;;;1.33;;
13240;SDS011;6687;47.790;7.322;2024-01-30T13:40:21;1.85;;;1.15;;
13240;SDS011;6687;47.790;7.322;2024-01-30T13:42:48;0.95;;;0.45;;
13240;SDS011;6687;47.790;7.322;2024-01-30T13:45:16;1.10;;;1.05;;
13240;SDS011;6687;47.790;7.322;2024-01-30T13:47:43;2.58;;;1.33;;
13240;SDS011;6687;47.790;7.322;2024-01-30T13:50:09;1.20;;;0.90;;
13240;SDS011;6687;47.790;7.322;2024-01-30T13:52:40;1.13;;;1.02;;
13240;SDS011;6687;47.790;7.322;2024-01-30T13:55:07;1.58;;;1.30;;
13240;SDS011;6687;47.790;7.322;2024-01-30T13:57:34;1.27;;;1.17;;
13240;SDS011;6687;47.790;7.322;2024-01-30T14:00:01;0.80;;;0.80;;
13240;SDS011;6687;47.790;7.322;2024-01-30T14:02:31;2.05;;;1.40;;
13240;SDS011;6687;47.790;7.322;2024-01-30T14:04:59;0.85;;;0.85;;
13240;SDS011;6687;47.790;7.322;2024-01-30T14:07:26;1.13;;;1.10;;
13240;SDS011;6687;47.790;7.322;2024-01-30T14:09:52;0.65;;;0.65;;
13240;SDS011;6687;47.790;7.322;2024-01-30T14:12:19;0.85;;;0.85;;
13240;SDS011;6687;47.790;7.322;2024-01-30T14:14:46;1.17;;;0.93;;
13240;SDS011;6687;47.790;7.322;2024-01-30T14:17:13;1.13;;;0.98;;
13240;SDS011;6687;47.790;7.322;2024-01-30T14:19:41;1.30;;;1.23;;
13240;SDS011;6687;47.790;7.322;2024-01-30T14:22:07;1.10;;;1.00;;
13240;SDS011;6687;47.790;7.322;2024-01-30T14:24:34;1.77;;;1.20;;
13240;SDS011;6687;47.790;7.322;2024-01-30T14:27:02;1.40;;;1.15;;
13240;SDS011;6687;47.790;7.322;2024-01-30T14:29:29;1.17;;;1.08;;
13240;SDS011;6687;47.790;7.322;2024-01-30T14:31:55;1.23;;;1.23;;
13240;SDS011;6687;47.790;7.322;2024-01-30T14:34:22;1.45;;;1.35;;
13240;SDS011;6687;47.790;7.322;2024-01-30T14:36:50;0.80;;;0.80;;
13240;SDS011;6687;47.790;7.322;2024-01-30T14:39:17;0.80;;;0.80;;
13240;SDS011;6687;47.790;7.322;2024-01-30T14:41:44;2.08;;;1.00;;
13240;SDS011;6687;47.790;7.322;2024-01-30T14:44:11;1.45;;;1.23;;
13240;SDS011;6687;47.790;7.322;2024-01-30T14:46:39;2.50;;;1.88;;
13240;SDS011;6687;47.790;7.322;2024-01-30T14:49:06;2.15;;;1.95;;
13240;SDS011;6687;47.790;7.322;2024-01-30T14:51:33;2.70;;;1.70;;
13240;SDS011;6687;47.790;7.322;2024-01-30T14:54:01;2.65;;;1.63;;
13240;SDS011;6687;47.790;7.322;2024-01-30T14:56:27;2.28;;;1.95;;
13240;SDS011;6687;47.790;7.322;2024-01-30T14:58:54;2.03;;;1.70;;
13240;SDS011;6687;47.790;7.322;2024-01-30T15:01:21;1.50;;;1.40;;
13240;SDS011;6687;47.790;7.322;2024-01-30T15:03:48;3.30;;;1.42;;
13240;SDS011;6687;47.790;7.322;2024-01-30T15:06:16;2.58;;;1.45;;
13240;SDS011;6687;47.790;7.322;2024-01-30T15:08:43;1.50;;;1.40;;
13240;SDS011;6687;47.790;7.322;2024-01-30T15:11:11;1.45;;;1.20;;
13240;SDS011;6687;47.790;7.322;2024-01-30T15:13:38;1.13;;;1.02;;
13240;SDS011;6687;47.790;7.322;2024-01-30T15:16:05;0.93;;;0.93;;
13240;SDS011;6687;47.790;7.322;2024-01-30T15:18:32;1.77;;;1.25;;
13240;SDS011;6687;47.790;7.322;2024-01-30T15:20:59;1.23;;;1.15;;
13240;SDS011;6687;47.790;7.322;2024-01-30T15:23:26;1.25;;;1.15;;
13240;SDS011;6687;47.790;7.322;2024-01-30T15:25:52;1.30;;;1.20;;
13240;SDS011;6687;47.790;7.322;2024-01-30T15:28:22;1.23;;;1.02;;
13240;SDS011;6687;47.790;7.322;2024-01-30T15:30:59;2.47;;;1.33;;
13240;SDS011;6687;47.790;7.322;2024-01-30T15:33:26;2.25;;;1.25;;
13240;SDS011;6687;47.790;7.322;2024-01-30T15:35:53;1.30;;;1.08;;
13240;SDS011;6687;47.790;7.322;2024-01-30T15:38:20;1.58;;;1.15;;
13240;SDS011;6687;47.790;7.322;2024-01-30T15:40:47;1.70;;;0.80;;
13240;SDS011;6687;47.790;7.322;2024-01-30T15:43:13;1.02;;;1.00;;
13240;SDS011;6687;47.790;7.322;2024-01-30T15:45:42;1.48;;;1.25;;
13240;SDS011;6687;47.790;7.322;2024-01-30T15:48:08;1.45;;;1.35;;
13240;SDS011;6687;47.790;7.322;2024-01-30T15:50:35;1.48;;;1.38;;
13240;SDS011;6687;47.790;7.322;2024-01-30T15:53:02;1.33;;;1.23;;
13240;SDS011;6687;47.790;7.322;2024-01-30T15:55:29;1.42;;;1.33;;
13240;SDS011;6687;47.790;7.322;2024-01-30T15:57:56;1.48;;;1.38;;
13240;SDS011;6687;47.790;7.322;2024-01-30T16:00:23;2.65;;;1.83;;
13240;SDS011;6687;47.790;7.322;2024-01-30T16:02:51;1.00;;;0.85;;
13240;SDS011;6687;47.790;7.322;2024-01-30T16:05:18;1.48;;;1.20;;
13240;SDS011;6687;47.790;7.322;2024-01-30T16:07:44;2.10;;;1.55;;
13240;SDS011;6687;47.790;7.322;2024-01-30T16:10:11;1.52;;;1.42;;
13240;SDS011;6687;47.790;7.322;2024-01-30T16:12:41;1.20;;;1.10;;
13240;SDS011;6687;47.790;7.322;2024-01-30T16:15:10;1.30;;;1.25;;
13240;SDS011;6687;47.790;7.322;2024-01-30T16:17:37;2.10;;;1.88;;
13240;SDS011;6687;47.790;7.322;2024-01-30T16:20:05;1.65;;;1.55;;
13240;SDS011;6687;47.790;7.322;2024-01-30T16:22:34;1.08;;;0.98;;
13240;SDS011;6687;47.790;7.322;2024-01-30T16:25:01;1.77;;;1.42;;
13240;SDS011;6687;47.790;7.322;2024-01-30T16:27:29;1.23;;;1.13;;
13240;SDS011;6687;47.790;7.322;2024-01-30T16:29:56;1.67;;;1.45;;
13240;SDS011;6687;47.790;7.322;2024-01-30T16:32:22;1.85;;;1.45;;
13240;SDS011;6687;47.790;7.322;2024-01-30T16:34:49;1.10;;;1.10;;
13240;SDS011;6687;47.790;7.322;2024-01-30T16:37:17;1.45;;;1.35;;
13240;SDS011;6687;47.790;7.322;2024-01-30T16:39:44;1.52;;;1.42;;
13240;SDS011;6687;47.790;7.322;2024-01-30T16:42:10;1.70;;;1.60;;
13240;SDS011;6687;47.790;7.322;2024-01-30T16:44:37;1.75;;;1.42;;
13240;SDS011;6687;47.790;7.322;2024-01-30T16:47:04;1.48;;;1.38;;
13240;SDS011;6687;47.790;7.322;2024-01-30T16:49:31;1.35;;;1.25;;
13240;SDS011;6687;47.790;7.322;2024-01-30T16:51:58;1.52;;;1.42;;
13240;SDS011;6687;47.790;7.322;2024-01-30T16:54:26;2.55;;;1.63;;
13240;SDS011;6687;47.790;7.322;2024-01-30T16:56:53;1.42;;;1.33;;
13240;SDS011;6687;47.790;7.322;2024-01-30T16:59:19;2.78;;;1.75;;
13240;SDS011;6687;47.790;7.322;2024-01-30T17:01:46;2.05;;;1.90;;
13240;SDS011;6687;47.790;7.322;2024-01-30T17:04:14;2.92;;;1.63;;
13240;SDS011;6687;47.790;7.322;2024-01-30T17:06:41;1.70;;;1.60;;
13240;SDS011;6687;47.790;7.322;2024-01-30T17:09:08;2.40;;;1.80;;
13240;SDS011;6687;47.790;7.322;2024-01-30T17:11:36;2.22;;;1.95;;
13240;SDS011;6687;47.790;7.322;2024-01-30T17:14:04;2.03;;;1.92;;
13240;SDS011;6687;47.790;7.322;2024-01-30T17:16:30;2.60;;;2.03;;
13240;SDS011;6687;47.790;7.322;2024-01-30T17:18:57;1.83;;;1.73;;
13240;SDS011;6687;47.790;7.322;2024-01-30T17:21:24;2.42;;;1.80;;
13240;SDS011;6687;47.790;7.322;2024-01-30T17:23:51;1.85;;;1.67;;
13240;SDS011;6687;47.790;7.322;2024-01-30T17:26:18;2.42;;;1.63;;
13240;SDS011;6687;47.790;7.322;2024-01-30T17:28:46;1.73;;;1.55;;
13240;SDS011;6687;47.790;7.322;2024-01-30T17:31:13;1.77;;;1.58;;
13240;SDS011;6687;47.790;7.322;2024-01-30T17:33:40;2.78;;;2.08;;
13240;SDS011;6687;47.790;7.322;2024-01-30T17:36:07;3.15;;;1.88;;
13240;SDS011;6687;47.790;7.322;2024-01-30T17:38:34;1.80;;;1.67;;
13240;SDS011;6687;47.790;7.322;2024-01-30T17:41:01;2.20;;;1.92;;
13240;SDS011;6687;47.790;7.322;2024-01-30T17:43:28;1.58;;;1.48;;
13240;SDS011;6687;47.790;7.322;2024-01-30T17:45:56;1.42;;;1.33;;
13240;SDS011;6687;47.790;7.322;2024-01-30T17:48:24;3.70;;;1.73;;
13240;SDS011;6687;47.790;7.322;2024-01-30T17:50:51;1.50;;;1.40;;
13240;SDS011;6687;47.790;7.322;2024-01-30T17:53:17;1.65;;;1.55;;
13240;SDS011;6687;47.790;7.322;2024-01-30T17:55:44;1.67;;;1.58;;
13240;SDS011;6687;47.790;7.322;2024-01-30T17:58:11;2.92;;;1.50;;
13240;SDS011;6687;47.790;7.322;2024-01-30T18:00:37;1.88;;;1.73;;
13240;SDS011;6687;47.790;7.322;2024-01-30T18:03:06;1.75;;;1.65;;
13240;SDS011;6687;47.790;7.322;2024-01-30T18:05:32;1.55;;;1.45;;
13240;SDS011;6687;47.790;7.322;2024-01-30T18:07:59;1.98;;;1.80;;
13240;SDS011;6687;47.790;7.322;2024-01-30T18:10:26;1.45;;;1.35;;
13240;SDS011;6687;47.790;7.322;2024-01-30T18:12:53;2.05;;;1.75;;
13240;SDS011;6687;47.790;7.322;2024-01-30T18:15:21;2.13;;;1.70;;
13240;SDS011;6687;47.790;7.322;2024-01-30T18:17:47;1.77;;;1.67;;
13240;SDS011;6687;47.790;7.322;2024-01-30T18:20:16;1.30;;;1.20;;
13240;SDS011;6687;47.790;7.322;2024-01-30T18:22:42;1.38;;;1.27;;
13240;SDS011;6687;47.790;7.322;2024-01-30T18:25:11;1.55;;;1.45;;
13240;SDS011;6687;47.790;7.322;2024-01-30T18:27:37;1.75;;;1.58;;
13240;SDS011;6687;47.790;7.322;2024-01-30T18:30:04;1.50;;;1.40;;
13240;SDS011;6687;47.790;7.322;2024-01-30T18:32:32;1.40;;;1.30;;
13240;SDS011;6687;47.790;7.322;2024-01-30T18:34:58;1.67;;;1.58;;
13240;SDS011;6687;47.790;7.322;2024-01-30T18:37:27;1.67;;;1.58;;
13240;SDS011;6687;47.790;7.322;2024-01-30T18:39:53;1.48;;;1.38;;
13240;SDS011;6687;47.790;7.322;2024-01-30T18:42:20;1.92;;;1.58;;
13240;SDS011;6687;47.790;7.322;2024-01-30T18:44:47;2.33;;;1.88;;
13240;SDS011;6687;47.790;7.322;2024-01-30T18:47:13;1.65;;;1.30;;
13240;SDS011;6687;47.790;7.322;2024-01-30T18:49:40;1.70;;;1.58;;
13240;SDS011;6687;47.790;7.322;2024-01-30T18:52:07;2.33;;;2.13;;
13240;SDS011;6687;47.790;7.322;2024-01-30T18:54:35;1.98;;;1.88;;
13240;SDS011;6687;47.790;7.322;2024-01-30T18:57:02;1.60;;;1.50;;
13240;SDS011;6687;47.790;7.322;2024-01-30T18:59:29;1.63;;;1.52;;
13240;SDS011;6687;47.790;7.322;2024-01-30T19:01:56;1.98;;;1.77;;
13240;SDS011;6687;47.790;7.322;2024-01-30T19:04:23;1.83;;;1.67;;
13240;SDS011;6687;47.790;7.322;2024-01-30T19:06:49;2.25;;;1.88;;
13240;SDS011;6687;47.790;7.322;2024-01-30T19:09:17;1.73;;;1.63;;
13240;SDS011;6687;47.790;7.322;2024-01-30T19:11:45;2.28;;;2.08;;
13240;SDS011;6687;47.790;7.322;2024-01-30T19:14:12;2.47;;;2.15;;
13240;SDS011;6687;47.790;7.322;2024-01-30T19:16:38;2.03;;;1.83;;
13240;SDS011;6687;47.790;7.322;2024-01-30T19:19:05;3.25;;;2.45;;
13240;SDS011;6687;47.790;7.322;2024-01-30T19:21:32;3.42;;;2.35;;
13240;SDS011;6687;47.790;7.322;2024-01-30T19:24:00;2.47;;;2.15;;
13240;SDS011;6687;47.790;7.322;2024-01-30T19:26:27;3.35;;;2.22;;
13240;SDS011;6687;47.790;7.322;2024-01-30T19:28:56;2.13;;;1.73;;
13240;SDS011;6687;47.790;7.322;2024-01-30T19:31:22;2.33;;;2.13;;
13240;SDS011;6687;47.790;7.322;2024-01-30T19:33:49;2.17;;;1.80;;
13240;SDS011;6687;47.790;7.322;2024-01-30T19:36:16;1.83;;;1.73;;
13240;SDS011;6687;47.790;7.322;2024-01-30T19:38:43;2.20;;;2.00;;
13240;SDS011;6687;47.790;7.322;2024-01-30T19:41:11;1.85;;;1.75;;
13240;SDS011;6687;47.790;7.322;2024-01-30T19:43:38;1.80;;;1.40;;
13240;SDS011;6687;47.790;7.322;2024-01-30T19:46:06;4.13;;;1.90;;
13240;SDS011;6687;47.790;7.322;2024-01-30T19:48:35;1.77;;;1.58;;
13240;SDS011;6687;47.790;7.322;2024-01-30T19:51:03;1.88;;;1.77;;
13240;SDS011;6687;47.790;7.322;2024-01-30T19:53:30;2.95;;;1.77;;
13240;SDS011;6687;47.790;7.322;2024-01-30T19:55:57;1.50;;;1.40;;
13240;SDS011;6687;47.790;7.322;2024-01-30T19:58:24;1.45;;;1.35;;
13240;SDS011;6687;47.790;7.322;2024-01-30T20:00:51;2.20;;;1.65;;
13240;SDS011;6687;47.790;7.322;2024-01-30T20:03:19;1.58;;;1.40;;
13240;SDS011;6687;47.790;7.322;2024-01-30T20:05:45;1.92;;;1.83;;
13240;SDS011;6687;47.790;7.322;2024-01-30T20:08:12;1.90;;;1.75;;
13240;SDS011;6687;47.790;7.322;2024-01-30T20:10:40;2.33;;;2.13;;
13240;SDS011;6687;47.790;7.322;2024-01-30T20:13:07;3.38;;;2.10;;
13240;SDS011;6687;47.790;7.322;2024-01-30T20:15:34;3.67;;;2.80;;
13240;SDS011;6687;47.790;7.322;2024-01-30T20:18:00;2.58;;;2.03;;
13240;SDS011;6687;47.790;7.322;2024-01-30T20:20:28;2.45;;;1.80;;
13240;SDS011;6687;47.790;7.322;2024-01-30T20:22:55;1.88;;;1.77;;
13240;SDS011;6687;47.790;7.322;2024-01-30T20:25:22;2.53;;;2.08;;
13240;SDS011;6687;47.790;7.322;2024-01-30T20:27:48;2.53;;;2.25;;
13240;SDS011;6687;47.790;7.322;2024-01-30T20:30:15;2.45;;;1.90;;
13240;SDS011;6687;47.790;7.322;2024-01-30T20:32:42;5.18;;;3.17;;
13240;SDS011;6687;47.790;7.322;2024-01-30T20:35:09;2.95;;;2.10;;
13240;SDS011;6687;47.790;7.322;2024-01-30T20:37:37;3.78;;;2.53;;
13240;SDS011;6687;47.790;7.322;2024-01-30T20:40:04;6.10;;;2.45;;
13240;SDS011;6687;47.790;7.322;2024-01-30T20:42:32;3.47;;;2.20;;
13240;SDS011;6687;47.790;7.322;2024-01-30T20:44:59;4.25;;;2.67;;
13240;SDS011;6687;47.790;7.322;2024-01-30T20:47:28;2.80;;;2.60;;
13240;SDS011;6687;47.790;7.322;2024-01-30T20:49:55;2.72;;;2.03;;
13240;SDS011;6687;47.790;7.322;2024-01-30T20:52:21;2.47;;;2.08;;
13240;SDS011;6687;47.790;7.322;2024-01-30T20:54:49;2.45;;;2.25;;
13240;SDS011;6687;47.790;7.322;2024-01-30T20:57:16;2.33;;;2.15;;
13240;SDS011;6687;47.790;7.322;2024-01-30T20:59:43;2.20;;;1.95;;
13240;SDS011;6687;47.790;7.322;2024-01-30T21:02:10;3.42;;;2.30;;
13240;SDS011;6687;47.790;7.322;2024-01-30T21:04:36;2.22;;;1.98;;
13240;SDS011;6687;47.790;7.322;2024-01-30T21:07:03;2.17;;;2.05;;
13240;SDS011;6687;47.790;7.322;2024-01-30T21:09:30;2.22;;;1.92;;
13240;SDS011;6687;47.790;7.322;2024-01-30T21:11:59;2.38;;;2.20;;
13240;SDS011;6687;47.790;7.322;2024-01-30T21:14:25;2.63;;;2.40;;
13240;SDS011;6687;47.790;7.322;2024-01-30T21:16:53;2.15;;;1.83;;
13240;SDS011;6687;47.790;7.322;2024-01-30T21:19:19;2.22;;;2.03;;